Time;durP1;ratioP1;P1;durP2;ratioP2;P2;SDS_P1;SDS_P2;PMS_P1;PMS_P2;Temp;Humidity;BMP_temperature;BMP_pressure;BME280_temperature;BME280_humidity;BME280_pressure;Samples;Min_cycle;Max_cycle;Signal;HPM_P1;HPM_P2
2021/09/06 00:01:04;;;;;;;5.05;3.97;;;22.70;99.90;;;;;;5031620;28;20745;-77
2021/09/06 00:03:31;;;;;;;6.20;3.53;;;22.70;99.90;;;;;;5031415;28;20208;-77
2021/09/06 00:05:59;;;;;;;4.18;3.85;;;22.70;99.90;;;;;;5031514;28;20729;-77
2021/09/06 00:08:27;;;;;;;5.53;3.63;;;22.70;99.90;;;;;;5031476;28;20211;-76
2021/09/06 00:11:03;;;;;;;4.38;4.07;;;22.70;99.90;;;;;;5031129;28;20714;-77
2021/09/06 00:13:30;;;;;;;7.57;4.18;;;22.70;99.90;;;;;;5031258;28;20235;-77
2021/09/06 00:15:57;;;;;;;8.48;4.10;;;22.80;99.90;;;;;;5031356;28;20648;-77
2021/09/06 00:18:25;;;;;;;3.78;3.28;;;22.60;99.90;;;;;;5030652;28;20687;-77
2021/09/06 00:20:52;;;;;;;6.35;4.43;;;22.60;99.90;;;;;;5031775;28;20214;-77
2021/09/06 00:23:21;;;;;;;4.03;3.35;;;22.50;99.90;;;;;;5031072;28;20212;-76
2021/09/06 00:25:48;;;;;;;4.55;4.07;;;22.50;99.90;;;;;;5040655;28;20207;-75
2021/09/06 00:28:15;;;;;;;4.93;3.90;;;22.40;99.90;;;;;;5035458;28;20211;-75
2021/09/06 00:30:42;;;;;;;3.53;3.20;;;22.30;99.90;;;;;;5031807;28;20257;-74
2021/09/06 00:33:10;;;;;;;3.70;3.40;;;22.20;99.90;;;;;;5031801;28;20204;-74
2021/09/06 00:35:37;;;;;;;5.80;4.10;;;22.20;99.90;;;;;;5030810;28;20211;-75
2021/09/06 00:38:04;;;;;;;5.28;4.88;;;22.20;99.90;;;;;;5030992;28;20269;-74
2021/09/06 00:40:32;;;;;;;4.00;3.70;;;22.20;99.90;;;;;;5030351;28;20615;-75
2021/09/06 00:42:59;;;;;;;6.03;4.75;;;22.20;99.90;;;;;;5031355;28;20212;-76
2021/09/06 00:45:27;;;;;;;4.75;4.32;;;22.20;99.90;;;;;;5030486;28;20671;-77
2021/09/06 00:47:53;;;;;;;4.57;4.03;;;22.20;99.90;;;;;;5031297;28;20211;-76
2021/09/06 00:50:20;;;;;;;4.72;4.30;;;22.20;99.90;;;;;;5030531;28;20211;-76
2021/09/06 00:52:48;;;;;;;4.22;3.47;;;22.10;99.90;;;;;;5030811;28;20281;-76
2021/09/06 00:55:17;;;;;;;5.00;4.60;;;21.90;99.90;;;;;;5030829;28;20265;-75
2021/09/06 00:57:46;;;;;;;5.15;4.60;;;21.90;99.90;;;;;;5031265;28;20207;-76
2021/09/06 01:00:15;;;;;;;4.95;4.45;;;21.80;99.90;;;;;;5031245;28;20211;-75
2021/09/06 01:02:42;;;;;;;4.97;4.47;;;21.70;99.90;;;;;;5030761;28;20650;-75
2021/09/06 01:05:11;;;;;;;6.80;4.70;;;21.70;99.90;;;;;;5031080;28;20257;-75
2021/09/06 01:07:38;;;;;;;4.65;4.20;;;21.70;99.90;;;;;;5030733;28;20207;-75
2021/09/06 01:10:08;;;;;;;6.57;4.45;;;21.70;99.90;;;;;;5030598;28;20261;-75
2021/09/06 01:12:36;;;;;;;7.72;5.05;;;21.70;99.90;;;;;;5029777;28;20780;-75
2021/09/06 01:15:06;;;;;;;5.43;4.95;;;21.60;99.90;;;;;;5029125;28;20238;-74
2021/09/06 01:17:33;;;;;;;5.32;4.72;;;21.70;99.90;;;;;;5030037;28;20634;-75
2021/09/06 01:20:01;;;;;;;4.53;4.13;;;21.70;99.90;;;;;;5030613;28;20210;-73
2021/09/06 01:22:28;;;;;;;5.40;3.95;;;21.80;99.90;;;;;;5029961;28;20262;-77
2021/09/06 01:24:55;;;;;;;5.25;4.75;;;21.90;99.90;;;;;;5030573;28;20261;-76
2021/09/06 01:27:23;;;;;;;5.10;4.70;;;21.80;99.90;;;;;;5044040;28;20269;-76
2021/09/06 01:29:52;;;;;;;5.35;4.95;;;21.80;99.90;;;;;;5030176;28;20226;-77
2021/09/06 01:32:19;;;;;;;4.45;4.10;;;21.80;99.90;;;;;;5029507;28;20227;-75
2021/09/06 01:34:46;;;;;;;5.13;4.72;;;21.70;99.90;;;;;;5030282;28;20671;-77
2021/09/06 01:37:13;;;;;;;5.50;4.60;;;21.50;99.90;;;;;;5030507;28;20230;-77
2021/09/06 01:39:40;;;;;;;5.85;4.55;;;21.40;99.90;;;;;;5030345;28;20208;-77
2021/09/06 01:42:07;;;;;;;5.72;5.20;;;21.40;99.90;;;;;;5030215;28;20687;-77
2021/09/06 01:44:35;;;;;;;7.57;5.07;;;21.50;99.90;;;;;;5030181;28;20269;-77
2021/09/06 01:47:03;;;;;;;4.60;4.20;;;21.60;99.90;;;;;;5030269;28;20207;-76
2021/09/06 01:49:30;;;;;;;4.32;4.03;;;21.60;99.90;;;;;;5029325;28;20596;-77
2021/09/06 01:51:57;;;;;;;4.32;4.03;;;21.60;99.90;;;;;;5030116;28;20764;-77
2021/09/06 01:54:25;;;;;;;5.60;5.10;;;21.60;99.90;;;;;;5029564;28;20211;-76
2021/09/06 01:56:51;;;;;;;4.95;4.45;;;21.40;99.90;;;;;;5030368;28;20207;-75
2021/09/06 01:59:19;;;;;;;5.47;5.07;;;21.40;99.90;;;;;;5029756;28;20269;-75
2021/09/06 02:01:47;;;;;;;5.68;5.13;;;21.40;99.90;;;;;;5030132;28;20211;-75
2021/09/06 02:04:14;;;;;;;7.15;5.63;;;21.40;99.90;;;;;;5030064;28;20204;-76
2021/09/06 02:06:41;;;;;;;5.32;4.80;;;21.40;99.90;;;;;;5030376;28;20215;-76
2021/09/06 02:09:08;;;;;;;9.32;5.05;;;21.30;99.90;;;;;;5030728;28;20212;-75
2021/09/06 02:11:35;;;;;;;5.70;5.20;;;21.40;99.90;;;;;;5029270;28;20223;-76
2021/09/06 02:14:02;;;;;;;5.65;4.95;;;21.40;99.90;;;;;;5029964;28;20667;-76
2021/09/06 02:16:29;;;;;;;6.53;5.93;;;21.40;99.90;;;;;;5029616;28;20625;-76
2021/09/06 02:18:57;;;;;;;5.82;5.15;;;21.30;99.90;;;;;;5030136;28;20563;-76
2021/09/06 02:21:24;;;;;;;5.90;5.30;;;21.20;99.90;;;;;;5029214;28;20208;-76
2021/09/06 02:23:51;;;;;;;6.57;5.60;;;21.10;99.90;;;;;;5030110;28;20262;-75
2021/09/06 02:26:18;;;;;;;9.57;7.43;;;21.10;99.90;;;;;;5029678;28;20208;-76
2021/09/06 02:28:47;;;;;;;9.43;5.97;;;21.00;99.90;;;;;;5029719;28;20250;-75
2021/09/06 02:31:14;;;;;;;8.80;6.57;;;21.10;99.90;;;;;;5029842;28;20660;-76
2021/09/06 02:33:41;;;;;;;7.68;6.40;;;21.20;99.90;;;;;;5029804;28;20199;-76
2021/09/06 02:36:10;;;;;;;6.10;5.57;;;21.10;99.90;;;;;;5030157;28;20215;-75
2021/09/06 02:38:37;;;;;;;7.60;6.20;;;21.20;99.90;;;;;;5029370;28;20216;-76
2021/09/06 02:41:04;;;;;;;8.10;6.00;;;21.20;99.90;;;;;;5029737;28;20651;-76
2021/09/06 02:43:31;;;;;;;7.43;6.63;;;21.20;99.90;;;;;;5032503;28;20270;-77
2021/09/06 02:45:58;;;;;;;5.43;5.03;;;21.20;99.90;;;;;;5033846;28;20282;-77
2021/09/06 02:48:25;;;;;;;6.90;6.00;;;21.30;99.90;;;;;;5032866;28;20737;-76
2021/09/06 02:50:52;;;;;;;7.05;6.43;;;21.20;99.90;;;;;;5032776;28;20212;-76
2021/09/06 02:53:21;;;;;;;6.63;5.57;;;21.00;99.90;;;;;;5032927;28;20269;-77
2021/09/06 02:55:47;;;;;;;6.40;5.78;;;21.00;99.90;;;;;;5033198;28;20269;-76
2021/09/06 02:58:14;;;;;;;6.40;5.90;;;21.00;99.90;;;;;;5033120;28;20588;-77
2021/09/06 03:00:41;;;;;;;6.55;6.05;;;21.00;99.90;;;;;;5032726;28;20671;-76
2021/09/06 03:03:08;;;;;;;5.63;5.13;;;20.90;99.90;;;;;;5033436;28;20211;-76
2021/09/06 03:05:35;;;;;;;7.07;5.68;;;21.00;99.90;;;;;;5032530;28;20204;-76
2021/09/06 03:08:03;;;;;;;6.15;5.55;;;20.90;99.90;;;;;;5033219;28;20207;-76
2021/09/06 03:10:31;;;;;;;7.30;5.70;;;20.80;99.90;;;;;;5032520;28;20203;-76
2021/09/06 03:12:59;;;;;;;6.28;5.30;;;20.70;99.90;;;;;;5032765;28;20242;-74
2021/09/06 03:15:26;;;;;;;6.38;5.78;;;20.80;99.90;;;;;;5032712;28;20261;-75
2021/09/06 03:17:53;;;;;;;5.93;5.43;;;20.70;99.90;;;;;;5032789;28;20261;-76
2021/09/06 03:20:20;;;;;;;5.32;4.93;;;20.80;99.90;;;;;;5032266;28;20208;-75
2021/09/06 03:22:46;;;;;;;5.95;5.45;;;20.80;99.90;;;;;;5032774;28;20207;-75
2021/09/06 03:25:13;;;;;;;6.78;5.97;;;20.80;99.90;;;;;;5032317;28;20257;-75
2021/09/06 03:27:42;;;;;;;6.10;5.60;;;20.80;99.90;;;;;;5032682;28;20291;-75
2021/09/06 03:30:10;;;;;;;6.05;5.55;;;20.90;99.90;;;;;;5032854;28;20269;-75
2021/09/06 03:32:37;;;;;;;8.40;5.90;;;20.90;99.90;;;;;;5032113;28;20246;-75
2021/09/06 03:35:04;;;;;;;6.32;5.82;;;20.90;99.90;;;;;;5032188;28;20215;-75
2021/09/06 03:37:31;;;;;;;6.32;5.22;;;20.80;99.90;;;;;;5031752;28;20211;-75
2021/09/06 03:39:58;;;;;;;6.00;4.95;;;20.80;99.90;;;;;;5032207;28;20266;-75
2021/09/06 03:42:25;;;;;;;7.53;5.57;;;20.80;99.90;;;;;;5031533;28;20573;-76
2021/09/06 03:44:53;;;;;;;6.55;5.50;;;20.80;99.90;;;;;;5032455;28;20211;-76
2021/09/06 03:47:20;;;;;;;8.48;7.13;;;20.80;99.90;;;;;;5031845;28;20207;-75
2021/09/06 03:49:47;;;;;;;7.28;5.05;;;20.60;99.90;;;;;;5032162;28;20207;-75
2021/09/06 03:52:14;;;;;;;7.70;6.38;;;20.70;99.90;;;;;;5031992;28;20261;-75
2021/09/06 03:54:42;;;;;;;8.30;6.28;;;20.70;99.90;;;;;;5031106;28;20334;-75
2021/09/06 03:57:09;;;;;;;7.47;6.78;;;20.60;99.90;;;;;;5032134;28;20254;-76
2021/09/06 03:59:35;;;;;;;7.00;5.78;;;20.70;99.90;;;;;;5031836;28;20281;-75
2021/09/06 04:02:04;;;;;;;6.15;5.63;;;20.60;99.90;;;;;;5032070;28;20215;-75
2021/09/06 04:04:31;;;;;;;6.20;5.68;;;20.60;99.90;;;;;;5031255;28;20208;-75
2021/09/06 04:06:58;;;;;;;6.28;5.60;;;20.70;99.90;;;;;;5032095;28;20284;-76
2021/09/06 04:09:25;;;;;;;7.38;6.63;;;20.60;99.90;;;;;;5031297;28;20203;-75
2021/09/06 04:11:52;;;;;;;6.63;6.03;;;20.60;99.90;;;;;;5031969;28;20203;-75
2021/09/06 04:14:21;;;;;;;5.07;4.68;;;20.60;99.90;;;;;;5031338;28;20273;-75
2021/09/06 04:16:48;;;;;;;6.82;6.20;;;20.50;99.90;;;;;;5031702;28;20671;-75
2021/09/06 04:19:17;;;;;;;11.50;6.18;;;20.50;99.90;;;;;;5031022;28;20217;-76
2021/09/06 04:21:44;;;;;;;6.75;5.85;;;20.50;99.90;;;;;;5031708;28;20282;-76
2021/09/06 04:24:11;;;;;;;7.05;5.95;;;20.50;99.90;;;;;;5032041;28;20280;-76
2021/09/06 04:26:38;;;;;;;10.95;5.80;;;20.50;99.90;;;;;;5031135;28;20234;-76
2021/09/06 04:29:05;;;;;;;7.10;6.03;;;20.50;99.90;;;;;;5031691;28;20208;-76
2021/09/06 04:31:32;;;;;;;8.50;6.22;;;20.50;99.90;;;;;;5030859;28;20636;-75
2021/09/06 04:33:59;;;;;;;9.98;6.47;;;20.50;99.90;;;;;;5017190;28;20289;-76
2021/09/06 04:36:27;;;;;;;8.93;6.75;;;20.40;99.90;;;;;;5031014;28;20207;-76
2021/09/06 04:38:54;;;;;;;8.30;6.38;;;20.40;99.90;;;;;;5030894;28;20195;-76
2021/09/06 04:41:21;;;;;;;8.38;6.97;;;20.20;99.90;;;;;;5030767;28;20732;-76
2021/09/06 04:43:48;;;;;;;8.63;7.72;;;20.30;99.90;;;;;;5031017;28;20216;-76
2021/09/06 04:46:15;;;;;;;8.10;7.40;;;20.20;99.90;;;;;;5031028;28;20630;-76
2021/09/06 04:48:42;;;;;;;7.43;6.82;;;20.30;99.90;;;;;;5030989;28;20294;-76
2021/09/06 04:51:11;;;;;;;9.73;8.02;;;20.20;99.90;;;;;;5031260;28;20207;-76
2021/09/06 04:53:39;;;;;;;7.47;6.88;;;20.20;99.90;;;;;;5030802;28;20250;-76
2021/09/06 04:56:06;;;;;;;11.38;8.68;;;20.20;99.90;;;;;;5030559;28;20212;-77
2021/09/06 04:58:33;;;;;;;8.38;7.35;;;20.20;99.90;;;;;;5030525;28;20211;-76
2021/09/06 05:01:00;;;;;;;7.47;6.88;;;20.20;99.90;;;;;;5030345;28;20253;-77
2021/09/06 05:03:29;;;;;;;8.07;7.30;;;20.10;99.90;;;;;;5030486;28;20604;-76
2021/09/06 05:05:58;;;;;;;9.52;7.90;;;20.10;99.90;;;;;;5030551;28;20207;-76
2021/09/06 05:08:25;;;;;;;7.18;6.50;;;20.00;99.90;;;;;;5030639;28;20204;-76
2021/09/06 05:10:54;;;;;;;8.90;7.47;;;20.00;99.90;;;;;;5030588;28;20204;-77
2021/09/06 05:13:21;;;;;;;8.90;7.85;;;20.00;99.90;;;;;;5030016;28;20729;-76
2021/09/06 05:15:48;;;;;;;9.30;8.48;;;20.00;99.90;;;;;;5030499;28;20211;-77
2021/09/06 05:18:15;;;;;;;8.90;8.00;;;19.90;99.90;;;;;;5030959;28;20199;-76
2021/09/06 05:20:43;;;;;;;11.13;9.57;;;19.90;99.90;;;;;;5030695;28;20211;-76
2021/09/06 05:23:10;;;;;;;11.02;10.02;;;20.00;99.90;;;;;;5030520;28;20737;-76
2021/09/06 05:25:37;;;;;;;9.75;7.72;;;19.90;99.90;;;;;;5030332;28;20211;-75
2021/09/06 05:28:06;;;;;;;10.82;8.85;;;19.90;99.90;;;;;;5030515;28;20215;-78
2021/09/06 05:30:33;;;;;;;8.18;7.47;;;19.90;99.90;;;;;;5029798;28;20266;-75
2021/09/06 05:33:00;;;;;;;10.65;9.55;;;19.90;99.90;;;;;;5030278;28;20585;-74
2021/09/06 05:35:27;;;;;;;9.07;7.28;;;20.00;99.90;;;;;;5029657;28;20204;-75
2021/09/06 05:37:54;;;;;;;7.95;7.25;;;20.00;99.90;;;;;;5030313;28;20224;-76
2021/09/06 05:40:21;;;;;;;9.30;7.63;;;20.10;99.90;;;;;;5029549;28;20207;-75
2021/09/06 05:42:48;;;;;;;9.40;8.02;;;20.10;99.90;;;;;;5027846;28;20207;-79
2021/09/06 05:45:16;;;;;;;7.90;7.07;;;20.10;99.90;;;;;;5027385;28;20215;-78
2021/09/06 05:47:43;;;;;;;7.53;6.85;;;20.10;99.90;;;;;;5033041;28;20242;-73
2021/09/06 05:50:17;;;;;;;6.97;6.38;;;20.20;99.90;;;;;;5030694;28;20341;-73
2021/09/06 05:52:44;;;;;;;7.57;6.88;;;20.20;99.90;;;;;;5036674;28;20215;-73
2021/09/06 05:55:12;;;;;;;7.65;6.95;;;20.20;99.90;;;;;;5037761;28;20693;-81
2021/09/06 05:57:39;;;;;;;8.30;7.50;;;20.10;99.90;;;;;;5030146;28;20290;-74
2021/09/06 06:00:07;;;;;;;7.40;6.53;;;20.20;99.90;;;;;;5029957;28;20294;-73
2021/09/06 06:02:36;;;;;;;8.13;7.32;;;20.20;99.90;;;;;;5029777;28;20203;-74
2021/09/06 06:05:03;;;;;;;7.63;6.95;;;20.20;99.90;;;;;;5030217;28;20273;-73
2021/09/06 06:07:31;;;;;;;9.30;8.30;;;20.20;99.90;;;;;;5029422;28;20242;-76
2021/09/06 06:09:58;;;;;;;8.05;7.32;;;20.20;99.90;;;;;;5029677;28;20652;-75
2021/09/06 06:12:27;;;;;;;7.32;6.72;;;20.20;99.90;;;;;;5029449;28;20736;-81
2021/09/06 06:14:54;;;;;;;8.25;6.32;;;20.30;99.90;;;;;;5024143;28;20211;-72
2021/09/06 06:17:21;;;;;;;8.13;7.32;;;20.30;99.90;;;;;;5025217;28;20626;-71
2021/09/06 06:19:50;;;;;;;11.63;8.38;;;20.40;99.90;;;;;;5021991;28;20212;-71
2021/09/06 06:22:17;;;;;;;10.13;7.32;;;20.50;99.90;;;;;;5025929;28;20207;-73
2021/09/06 06:24:44;;;;;;;8.68;7.30;;;20.30;99.90;;;;;;5031617;28;20242;-82
2021/09/06 06:27:12;;;;;;;9.57;8.45;;;20.40;99.90;;;;;;5032377;28;20679;-72
2021/09/06 06:29:39;;;;;;;9.65;8.43;;;20.50;99.90;;;;;;5033284;28;20670;-72
2021/09/06 06:32:06;;;;;;;8.63;7.40;;;20.40;99.90;;;;;;5031755;28;20265;-72
2021/09/06 06:34:33;;;;;;;11.13;9.20;;;20.50;99.90;;;;;;5032558;28;20243;-72
2021/09/06 06:37:02;;;;;;;9.00;7.95;;;20.50;99.90;;;;;;5032881;28;20261;-72
2021/09/06 06:39:29;;;;;;;10.70;7.75;;;20.60;99.90;;;;;;5031052;28;20725;-72
2021/09/06 06:41:56;;;;;;;9.60;8.65;;;20.60;99.90;;;;;;5029808;28;20266;-73
2021/09/06 06:44:23;;;;;;;9.55;8.63;;;20.70;99.90;;;;;;5032859;28;20288;-72
2021/09/06 06:46:50;;;;;;;9.60;8.63;;;20.70;99.90;;;;;;5032964;28;20258;-72
2021/09/06 06:49:17;;;;;;;9.32;8.40;;;20.80;99.90;;;;;;5020286;28;20208;-72
2021/09/06 06:51:44;;;;;;;9.15;8.23;;;20.80;99.90;;;;;;5033171;28;20215;-71
2021/09/06 06:54:13;;;;;;;10.15;9.10;;;21.00;99.90;;;;;;5024483;28;20238;-72
2021/09/06 06:56:39;;;;;;;9.98;9.00;;;21.00;99.90;;;;;;5027453;28;20234;-70
2021/09/06 06:59:06;;;;;;;9.45;8.55;;;21.00;99.90;;;;;;5022313;28;20741;-72
2021/09/06 07:01:33;;;;;;;11.20;9.70;;;21.00;99.90;;;;;;5032331;28;20596;-77
2021/09/06 07:04:00;;;;;;;12.35;9.60;;;21.10;99.90;;;;;;5027566;28;20234;-75
2021/09/06 07:06:27;;;;;;;11.73;8.05;;;21.10;99.90;;;;;;5031099;28;20218;-75
2021/09/06 07:08:54;;;;;;;9.75;8.75;;;21.10;99.90;;;;;;5032609;28;20207;-73
2021/09/06 07:11:24;;;;;;;12.05;8.90;;;21.20;99.90;;;;;;5027464;28;20431;-74
2021/09/06 07:13:51;;;;;;;8.65;6.97;;;21.40;99.90;;;;;;5022289;28;20661;-74
2021/09/06 07:16:18;;;;;;;8.70;7.43;;;21.30;99.90;;;;;;5017317;28;20204;-75
2021/09/06 07:18:45;;;;;;;7.63;6.93;;;21.50;99.90;;;;;;5024317;28;20208;-76
2021/09/06 07:21:12;;;;;;;7.70;6.38;;;21.50;99.90;;;;;;5032811;28;20338;-72
2021/09/06 07:23:40;;;;;;;7.90;7.20;;;21.60;99.90;;;;;;5032218;28;20687;-72
2021/09/06 07:26:07;;;;;;;5.70;5.10;;;21.70;99.90;;;;;;5032264;28;20214;-76
2021/09/06 07:28:35;;;;;;;6.13;5.50;;;21.60;99.90;;;;;;5031900;28;20273;-74
2021/09/06 07:31:02;;;;;;;9.20;6.03;;;21.60;99.90;;;;;;5032287;28;20211;-73
2021/09/06 07:33:29;;;;;;;6.72;6.07;;;21.70;99.90;;;;;;5031841;28;20235;-77
2021/09/06 07:35:56;;;;;;;9.52;6.03;;;21.70;99.90;;;;;;5032390;28;20204;-72
2021/09/06 07:38:23;;;;;;;6.95;6.22;;;21.70;99.90;;;;;;5031446;28;20265;-80
2021/09/06 07:40:50;;;;;;;6.75;6.15;;;21.90;99.90;;;;;;5032023;28;20234;-73
2021/09/06 07:43:17;;;;;;;6.82;6.22;;;22.10;99.90;;;;;;5031741;28;20596;-73
2021/09/06 07:45:46;;;;;;;5.97;5.47;;;22.20;99.90;;;;;;5030562;28;20270;-76
2021/09/06 07:48:14;;;;;;;5.72;4.93;;;22.20;99.90;;;;;;5027199;28;20216;-75
2021/09/06 07:50:41;;;;;;;6.00;5.50;;;22.40;99.90;;;;;;5031150;28;20204;-75
2021/09/06 07:53:08;;;;;;;6.80;6.10;;;22.60;99.90;;;;;;5031926;28;20210;-72
2021/09/06 07:55:35;;;;;;;5.93;5.32;;;22.50;99.90;;;;;;5031262;28;20211;-75
2021/09/06 07:58:02;;;;;;;5.78;5.30;;;22.80;99.90;;;;;;5031537;28;20294;-81
2021/09/06 08:00:29;;;;;;;5.72;4.95;;;23.10;99.90;;;;;;5031613;28;20262;-75
2021/09/06 08:02:57;;;;;;;7.35;5.47;;;23.00;99.90;;;;;;5031659;28;20250;-74
2021/09/06 08:05:26;;;;;;;5.70;5.20;;;23.00;99.90;;;;;;5029957;28;20207;-76
2021/09/06 08:07:53;;;;;;;6.47;5.97;;;23.00;99.90;;;;;;5031615;28;20614;-72
2021/09/06 08:10:20;;;;;;;5.45;4.95;;;23.30;99.90;;;;;;5029079;28;20265;-74
2021/09/06 08:12:47;;;;;;;5.13;4.65;;;23.50;99.90;;;;;;5029708;28;20199;-77
2021/09/06 08:15:15;;;;;;;7.20;4.80;;;23.70;99.90;;;;;;5030745;28;20232;-73
2021/09/06 08:17:42;;;;;;;4.88;4.47;;;23.70;99.90;;;;;;5031944;28;20265;-73
2021/09/06 08:20:13;;;;;;;5.05;4.65;;;23.90;99.90;;;;;;5031271;28;20259;-71
2021/09/06 08:22:41;;;;;;;5.25;4.80;;;23.70;99.90;;;;;;5031129;28;20257;-79
2021/09/06 08:25:10;;;;;;;5.63;4.88;;;23.90;99.90;;;;;;5021105;28;20206;-72
2021/09/06 08:27:39;;;;;;;7.68;5.13;;;24.00;99.90;;;;;;5012579;28;20676;-77
2021/09/06 08:30:09;;;;;;;5.82;4.50;;;24.20;99.90;;;;;;5013430;28;20208;-71
2021/09/06 08:32:36;;;;;;;7.38;5.13;;;24.00;99.90;;;;;;5020117;28;20264;-72
2021/09/06 08:35:03;;;;;;;5.05;4.60;;;24.10;99.90;;;;;;5020197;28;20236;-71
2021/09/06 08:37:31;;;;;;;7.18;5.18;;;24.30;99.90;;;;;;5011838;28;20684;-75
2021/09/06 08:39:58;;;;;;;5.63;5.13;;;24.40;99.90;;;;;;5015891;28;20212;-77
2021/09/06 08:42:25;;;;;;;7.53;5.57;;;24.50;99.90;;;;;;5012241;28;20208;-72
2021/09/06 08:44:52;;;;;;;5.38;4.95;;;24.50;99.90;;;;;;5022665;28;20261;-78
2021/09/06 08:47:19;;;;;;;5.38;4.97;;;24.70;99.90;;;;;;5015319;28;20249;-72
2021/09/06 08:49:46;;;;;;;5.60;5.10;;;24.90;99.90;;;;;;5013432;28;20209;-73
2021/09/06 08:52:14;;;;;;;6.07;5.57;;;24.80;99.90;;;;;;5027055;28;20658;-72
2021/09/06 08:54:43;;;;;;;6.15;5.03;;;24.90;99.90;;;;;;5020118;28;20791;-73
2021/09/06 08:57:10;;;;;;;7.57;5.88;;;25.10;99.90;;;;;;5019001;28;20230;-73
2021/09/06 08:59:40;;;;;;;7.45;5.47;;;25.40;99.90;;;;;;5021531;28;20219;-75
2021/09/06 09:02:08;;;;;;;8.30;5.78;;;25.90;99.90;;;;;;5015855;28;20215;-77
2021/09/06 09:04:36;;;;;;;5.03;4.07;;;26.60;99.90;;;;;;5013252;28;20266;-70
2021/09/06 09:07:04;;;;;;;4.93;4.53;;;28.70;99.90;;;;;;5018978;28;20204;-74
2021/09/06 09:09:35;;;;;;;5.05;4.65;;;29.50;99.90;;;;;;5015134;28;20702;-71
2021/09/06 09:12:06;;;;;;;4.57;4.00;;;28.50;99.90;;;;;;5013924;28;20679;-75
2021/09/06 09:14:34;;;;;;;4.47;4.07;;;27.50;99.90;;;;;;5014372;28;20277;-74
2021/09/06 09:17:02;;;;;;;4.88;4.13;;;27.10;99.90;;;;;;5013922;28;20278;-78
2021/09/06 09:19:29;;;;;;;6.88;4.47;;;28.30;99.90;;;;;;5016684;28;20211;-77
2021/09/06 09:21:58;;;;;;;6.72;4.28;;;29.60;99.90;;;;;;5030313;28;20204;-73
2021/09/06 09:24:25;;;;;;;4.30;3.90;;;30.50;99.90;;;;;;5029290;28;20583;-72
2021/09/06 09:26:54;;;;;;;4.38;3.88;;;31.00;99.90;;;;;;5030131;28;20270;-73
2021/09/06 09:29:23;;;;;;;4.97;4.43;;;30.70;99.90;;;;;;5030285;28;20250;-77
2021/09/06 09:31:51;;;;;;;4.82;4.38;;;30.20;99.90;;;;;;5030398;28;20207;-75
2021/09/06 09:34:18;;;;;;;5.53;4.70;;;32.60;99.90;;;;;;5023491;28;20223;-72
2021/09/06 09:36:45;;;;;;;4.72;4.32;;;32.50;99.90;;;;;;5029485;28;20286;-75
2021/09/06 09:39:13;;;;;;;5.25;4.03;;;34.20;99.90;;;;;;5029661;28;20736;-72
2021/09/06 09:41:42;;;;;;;5.20;4.70;;;32.40;99.90;;;;;;5025871;28;20215;-75
2021/09/06 09:44:16;;;;;;;4.65;4.25;;;31.30;99.90;;;;;;5029216;28;20264;-76
2021/09/06 09:46:55;;;;;;;10.13;4.53;;;31.80;99.90;;;;;;5030530;28;20210;-74
2021/09/06 09:49:23;;;;;;;4.18;3.78;;;31.40;99.90;;;;;;5029938;28;20261;-76
2021/09/06 09:51:50;;;;;;;4.05;3.70;;;30.70;99.90;;;;;;5030833;28;20203;-75
2021/09/06 09:54:18;;;;;;;5.43;5.00;;;28.70;99.90;;;;;;5032589;28;20230;-76
2021/09/06 09:56:46;;;;;;;6.10;5.13;;;28.70;99.90;;;;;;5027189;28;20262;-77
2021/09/06 09:59:14;;;;;;;4.68;4.28;;;29.70;99.90;;;;;;5031914;28;20675;-78
2021/09/06 10:01:45;;;;;;;4.50;4.10;;;28.80;99.90;;;;;;5031445;28;20208;-73
2021/09/06 10:04:16;;;;;;;4.95;4.55;;;30.00;99.90;;;;;;5028392;28;20207;-77
2021/09/06 10:06:44;;;;;;;4.43;3.95;;;30.30;99.90;;;;;;5029842;28;20246;-78
2021/09/06 10:09:14;;;;;;;5.47;4.97;;;29.50;99.90;;;;;;5029663;28;20686;-78
2021/09/06 10:11:42;;;;;;;5.20;4.80;;;29.70;99.90;;;;;;5034100;28;20207;-77
2021/09/06 10:14:17;;;;;;;5.90;5.35;;;31.30;99.90;;;;;;5034188;28;20721;-79
2021/09/06 10:16:44;;;;;;;4.80;4.40;;;31.90;99.90;;;;;;5034056;28;20202;-78
2021/09/06 10:19:12;;;;;;;6.78;5.95;;;32.60;99.90;;;;;;5030948;28;22454;-79
2021/09/06 10:21:44;;;;;;;5.95;4.78;;;33.10;99.90;;;;;;5031907;28;20203;-79
2021/09/06 10:24:16;;;;;;;5.32;4.93;;;35.00;99.90;;;;;;5034111;28;20214;-79
2021/09/06 10:26:44;;;;;;;4.97;4.47;;;35.40;99.90;;;;;;5031567;28;20206;-77
2021/09/06 10:29:19;;;;;;;4.75;4.35;;;36.20;99.90;;;;;;5031138;28;20199;-78
2021/09/06 10:31:58;;;;;;;5.43;4.93;;;30.40;99.90;;;;;;5031604;28;20214;-76
2021/09/06 10:34:29;;;;;;;5.75;5.28;;;28.90;99.90;;;;;;5025426;28;20669;-78
2021/09/06 10:37:02;;;;;;;5.07;4.60;;;28.80;99.90;;;;;;5017864;28;20294;-78
2021/09/06 10:39:30;;;;;;;4.80;4.40;;;28.50;99.90;;;;;;5032080;28;20199;-79
2021/09/06 10:42:06;;;;;;;5.40;5.00;;;28.50;99.90;;;;;;5031999;28;20207;-80
2021/09/06 10:44:40;;;;;;;4.05;3.75;;;28.50;99.90;;;;;;5026888;28;20714;-79
2021/09/06 10:47:10;;;;;;;5.35;4.85;;;28.90;99.90;;;;;;5028797;28;20565;-77
2021/09/06 10:49:41;;;;;;;6.85;5.13;;;28.90;99.90;;;;;;5031688;28;20757;-79
2021/09/06 10:52:10;;;;;;;5.18;4.68;;;28.90;99.90;;;;;;5032380;28;20208;-79
2021/09/06 10:54:39;;;;;;;5.28;4.85;;;28.60;99.90;;;;;;5031714;28;20243;-79
2021/09/06 10:57:07;;;;;;;10.80;4.57;;;28.90;99.90;;;;;;5031908;28;20257;-78
2021/09/06 10:59:35;;;;;;;5.85;5.35;;;29.10;99.90;;;;;;5031679;28;20224;-79
2021/09/06 11:02:07;;;;;;;4.40;4.05;;;29.20;99.90;;;;;;5031646;28;20206;-80
2021/09/06 11:04:34;;;;;;;5.40;5.00;;;29.50;99.90;;;;;;5028643;28;20261;-79
2021/09/06 11:07:04;;;;;;;8.30;5.55;;;29.60;99.90;;;;;;5031744;28;20211;-79
2021/09/06 11:09:33;;;;;;;4.63;4.22;;;29.40;99.90;;;;;;5031288;28;20208;-79
2021/09/06 11:12:02;;;;;;;5.85;5.35;;;29.50;99.90;;;;;;5032063;28;20261;-79
2021/09/06 11:14:37;;;;;;;5.25;4.85;;;29.60;99.90;;;;;;5029341;28;20281;-78
2021/09/06 11:17:15;;;;;;;7.20;5.30;;;29.50;99.90;;;;;;5019417;28;20254;-77
2021/09/06 11:19:42;;;;;;;5.68;5.25;;;29.50;99.90;;;;;;5019284;28;20739;-78
2021/09/06 11:22:09;;;;;;;7.15;4.35;;;29.70;99.90;;;;;;5013181;28;20204;-78
2021/09/06 11:24:38;;;;;;;6.93;5.13;;;29.90;99.90;;;;;;5011895;28;20216;-74
2021/09/06 11:27:05;;;;;;;4.75;4.35;;;29.90;99.90;;;;;;5012841;28;20250;-78
2021/09/06 11:29:40;;;;;;;5.03;4.63;;;30.00;99.90;;;;;;5011111;28;20204;-76
2021/09/06 11:32:08;;;;;;;7.13;4.38;;;30.20;99.90;;;;;;5019015;28;20207;-78
2021/09/06 11:34:35;;;;;;;5.47;4.65;;;30.20;99.90;;;;;;5018418;28;20232;-78
2021/09/06 11:37:08;;;;;;;6.32;4.30;;;30.40;99.90;;;;;;4972994;28;1247597;-80
2021/09/06 11:39:36;;;;;;;4.35;4.00;;;29.80;99.90;;;;;;5013521;28;20283;-79
2021/09/06 11:42:05;;;;;;;4.85;4.45;;;29.60;99.90;;;;;;5013071;28;20323;-80
2021/09/06 11:44:32;;;;;;;6.70;5.30;;;29.70;99.90;;;;;;5013916;28;20290;-84
2021/09/06 11:47:00;;;;;;;4.95;4.55;;;29.70;99.90;;;;;;5017703;28;20643;-76
2021/09/06 11:49:27;;;;;;;7.65;5.38;;;29.90;99.90;;;;;;5014167;28;20208;-79
2021/09/06 11:51:54;;;;;;;4.85;4.45;;;30.00;99.90;;;;;;5014491;28;20208;-75
2021/09/06 11:54:23;;;;;;;5.40;4.90;;;30.20;99.90;;;;;;5013715;28;20201;-79
2021/09/06 11:56:59;;;;;;;5.60;5.05;;;30.00;99.90;;;;;;5017675;28;20208;-83
2021/09/06 11:59:30;;;;;;;6.25;4.97;;;30.30;99.90;;;;;;5018917;28;20630;-78
2021/09/06 12:01:57;;;;;;;6.15;4.93;;;30.00;99.90;;;;;;5016783;28;20576;-79
2021/09/06 12:04:24;;;;;;;5.45;4.90;;;30.00;99.90;;;;;;5016337;28;20749;-79
2021/09/06 12:06:51;;;;;;;6.28;4.97;;;30.10;99.90;;;;;;5021783;28;20212;-74
2021/09/06 12:09:20;;;;;;;6.38;4.40;;;30.50;99.90;;;;;;5016092;28;20208;-78
2021/09/06 12:11:49;;;;;;;5.32;4.82;;;30.60;99.90;;;;;;5017992;28;20216;-78
2021/09/06 12:14:16;;;;;;;5.60;5.07;;;30.50;99.90;;;;;;5017599;28;20590;-75
2021/09/06 12:16:45;;;;;;;5.45;4.47;;;30.50;99.90;;;;;;5013599;28;20241;-77
2021/09/06 12:19:20;;;;;;;7.72;4.47;;;30.30;99.90;;;;;;5013793;28;20211;-81
2021/09/06 12:21:48;;;;;;;5.10;4.40;;;30.60;99.90;;;;;;5018689;28;20225;-77
2021/09/06 12:24:20;;;;;;;4.28;3.97;;;30.60;99.90;;;;;;5012152;28;20271;-84
2021/09/06 12:26:48;;;;;;;5.18;4.78;;;30.50;99.90;;;;;;5011697;28;20278;-85
2021/09/06 12:29:26;;;;;;;5.82;3.90;;;30.40;99.90;;;;;;5013938;28;20234;-86
2021/09/06 12:31:54;;;;;;;7.95;4.88;;;30.50;99.90;;;;;;5018357;28;20200;-78
2021/09/06 12:34:21;;;;;;;9.82;4.30;;;30.80;99.90;;;;;;5003409;28;20235;-79
2021/09/06 12:36:52;;;;;;;4.65;4.35;;;30.60;99.90;;;;;;5016187;28;20216;-79
2021/09/06 12:39:20;;;;;;;4.65;3.95;;;30.40;99.90;;;;;;5013254;28;20578;-78
2021/09/06 12:41:47;;;;;;;4.50;4.20;;;30.70;99.90;;;;;;5010702;28;20208;-79
2021/09/06 12:44:14;;;;;;;4.85;4.32;;;30.90;99.90;;;;;;5016402;28;20270;-78
2021/09/06 12:46:41;;;;;;;5.03;4.55;;;30.90;99.90;;;;;;5011017;28;20211;-77
2021/09/06 12:49:09;;;;;;;5.20;4.43;;;30.80;99.90;;;;;;5017804;28;20633;-79